createdAt,value
2023-01-07T00:00:48.776Z,5.87
2023-01-07T00:01:46.070Z,5.94
2023-01-07T00:02:42.922Z,6.36
2023-01-07T00:03:41.001Z,6.14
2023-01-07T00:04:37.885Z,5.47
2023-01-07T00:05:34.698Z,5.80
2023-01-07T00:06:34.955Z,5.74
2023-01-07T00:07:31.727Z,5.74
2023-01-07T00:08:32.901Z,5.38
2023-01-07T00:09:30.308Z,6.11
2023-01-07T00:10:27.113Z,5.91
2023-01-07T00:11:27.955Z,5.39
2023-01-07T00:12:24.798Z,5.57
2023-01-07T00:13:21.559Z,5.31
2023-01-07T00:14:18.511Z,5.09
2023-01-07T00:15:15.343Z,5.68
2023-01-07T00:16:15.319Z,5.82
2023-01-07T00:17:12.192Z,5.66
2023-01-07T00:18:08.982Z,5.49
2023-01-07T00:19:10.368Z,5.60
2023-01-07T00:20:07.538Z,5.42
2023-01-07T00:21:07.343Z,4.16
2023-01-07T00:22:24.441Z,4.48
2023-01-07T00:23:21.843Z,4.97
2023-01-07T00:24:18.822Z,5.35
2023-01-07T00:25:15.655Z,2.92
2023-01-07T00:26:56.906Z,5.53
2023-01-07T00:27:53.730Z,5.70
2023-01-07T00:28:52.555Z,5.85
2023-01-07T00:29:52.272Z,5.57
2023-01-07T00:30:49.062Z,5.56
2023-01-07T00:31:45.950Z,5.14
2023-01-07T00:33:06.642Z,5.57
2023-01-07T00:34:06.356Z,5.54
2023-01-07T00:35:04.233Z,6.01
2023-01-07T00:36:05.376Z,4.87
2023-01-07T00:37:21.020Z,4.20
2023-01-07T00:38:33.060Z,5.42
2023-01-07T00:39:32.423Z,5.48
2023-01-07T00:40:33.803Z,6.03
2023-01-07T00:41:31.115Z,4.89
2023-01-07T00:42:47.787Z,4.97
2023-01-07T00:43:52.360Z,5.56
2023-01-07T00:44:51.831Z,5.55
2023-01-07T00:45:48.719Z,5.38
2023-01-07T00:46:45.569Z,5.87
2023-01-07T00:47:42.441Z,5.61
2023-01-07T00:48:39.247Z,4.57
2023-01-07T00:49:36.078Z,5.79
2023-01-07T00:50:35.381Z,5.83
2023-01-07T00:51:32.168Z,5.95
2023-01-07T00:52:28.933Z,5.75
2023-01-07T00:53:25.780Z,5.43
2023-01-07T00:54:22.629Z,5.47
2023-01-07T00:55:19.920Z,5.91
2023-01-07T00:56:19.097Z,5.51
2023-01-07T00:57:15.938Z,5.82
2023-01-07T00:58:22.986Z,6.18
2023-01-07T00:59:19.722Z,6.04
2023-01-07T01:00:19.764Z,5.94
2023-01-07T01:01:16.676Z,5.98
2023-01-07T01:02:13.704Z,5.15
2023-01-07T01:03:14.089Z,5.77
2023-01-07T01:04:10.955Z,5.95
2023-01-07T01:05:09.462Z,5.54
2023-01-07T01:06:14.554Z,5.46
2023-01-07T01:07:11.364Z,5.45
2023-01-07T01:08:11.524Z,5.43
2023-01-07T01:09:08.966Z,5.90
2023-01-07T01:10:09.391Z,5.88
2023-01-07T01:11:08.473Z,6.02
2023-01-07T01:12:05.406Z,6.00
2023-01-07T01:13:02.351Z,5.92
2023-01-07T01:13:59.208Z,6.09
2023-01-07T01:14:56.219Z,6.11
2023-01-07T01:15:53.072Z,6.06
2023-01-07T01:16:49.883Z,5.70
2023-01-07T01:17:47.059Z,5.59
2023-01-07T01:18:45.776Z,5.72
2023-01-07T01:19:43.031Z,5.83
2023-01-07T01:20:40.393Z,5.96
2023-01-07T01:21:37.136Z,5.30
2023-01-07T01:22:34.183Z,5.15
2023-01-07T01:23:30.956Z,5.68
2023-01-07T01:24:27.829Z,5.39
2023-01-07T01:25:24.588Z,5.55
2023-01-07T01:26:21.720Z,4.64
2023-01-07T01:27:20.141Z,5.44
2023-01-07T01:28:16.936Z,5.85
2023-01-07T01:29:13.763Z,6.02
2023-01-07T01:30:11.095Z,5.03
2023-01-07T01:31:09.303Z,6.07
2023-01-07T01:32:06.199Z,5.11
2023-01-07T01:33:02.953Z,5.86
2023-01-07T01:34:00.155Z,5.18
2023-01-07T01:34:56.956Z,4.86
2023-01-07T01:35:53.730Z,5.88
2023-01-07T01:36:50.506Z,6.03
2023-01-07T01:37:47.436Z,5.67
2023-01-07T01:38:44.265Z,6.08
2023-01-07T01:39:41.067Z,5.95
2023-01-07T01:40:37.883Z,5.39
2023-01-07T01:41:35.406Z,5.89
2023-01-07T01:42:32.935Z,5.81
2023-01-07T01:43:31.843Z,5.97
2023-01-07T01:44:52.027Z,6.12
2023-01-07T01:45:48.876Z,5.91
2023-01-07T01:46:46.184Z,5.90
2023-01-07T01:47:42.983Z,5.98
2023-01-07T01:48:52.179Z,5.27
2023-01-07T01:49:58.077Z,6.11
2023-01-07T01:50:55.344Z,6.05
2023-01-07T01:52:19.015Z,5.09
2023-01-07T01:53:23.804Z,5.02
2023-01-07T01:54:21.513Z,5.12
2023-01-07T01:55:22.231Z,5.88
2023-01-07T01:56:27.703Z,5.88
2023-01-07T01:57:31.075Z,6.11
2023-01-07T01:58:35.840Z,5.51
2023-01-07T01:59:38.539Z,5.74
2023-01-07T02:00:36.453Z,5.56
2023-01-07T02:01:36.782Z,5.46
2023-01-07T02:02:42.733Z,6.10
2023-01-07T02:03:40.064Z,5.91
2023-01-07T02:04:37.543Z,6.27
2023-01-07T02:05:40.603Z,5.36
2023-01-07T02:06:47.918Z,5.91
2023-01-07T02:07:44.751Z,6.26
2023-01-07T02:08:41.504Z,5.83
2023-01-07T02:09:38.349Z,5.33
2023-01-07T02:10:35.650Z,5.50
2023-01-07T02:11:32.349Z,5.63
2023-01-07T02:13:00.985Z,5.78
2023-01-07T02:14:18.225Z,5.99
2023-01-07T02:15:28.473Z,6.17
2023-01-07T02:16:28.320Z,5.76
2023-01-07T02:17:55.526Z,5.45
2023-01-07T02:19:40.832Z,5.09
2023-01-07T02:20:37.619Z,5.50
2023-01-07T02:21:56.631Z,5.68
2023-01-07T02:23:11.539Z,5.89
2023-01-07T02:24:17.482Z,5.87
2023-01-07T02:25:32.541Z,5.45
2023-01-07T02:27:06.113Z,5.47
2023-01-07T02:28:40.054Z,5.31
2023-01-07T02:30:11.218Z,5.63
2023-01-07T02:31:26.801Z,4.75
2023-01-07T02:32:35.696Z,5.26
2023-01-07T02:33:54.096Z,5.07
2023-01-07T02:35:08.882Z,5.48
2023-01-07T02:36:08.440Z,5.33
2023-01-07T02:37:19.610Z,5.27
2023-01-07T02:38:44.107Z,5.10
2023-01-07T02:40:08.657Z,5.47
2023-01-07T02:41:14.152Z,5.49
2023-01-07T02:42:29.069Z,5.26
2023-01-07T02:43:51.148Z,4.53
2023-01-07T02:45:18.013Z,5.24
2023-01-07T02:46:38.885Z,5.36
2023-01-07T02:47:41.222Z,5.27
2023-01-07T02:48:39.858Z,4.86
2023-01-07T02:49:36.683Z,5.05
2023-01-07T02:50:34.971Z,4.90
2023-01-07T02:51:38.394Z,4.99
2023-01-07T02:52:36.331Z,5.11
2023-01-07T02:53:34.508Z,5.31
2023-01-07T02:54:31.296Z,5.62
2023-01-07T02:55:50.767Z,5.42
2023-01-07T02:57:28.882Z,5.17
2023-01-07T02:58:52.841Z,5.09
2023-01-07T03:00:14.177Z,4.21
2023-01-07T03:01:34.330Z,5.39
2023-01-07T03:03:25.776Z,5.70
2023-01-07T03:04:51.238Z,5.82
2023-01-07T03:05:59.562Z,5.75
2023-01-07T03:07:15.045Z,5.44
2023-01-07T03:08:39.736Z,5.54
2023-01-07T03:09:54.502Z,4.98
2023-01-07T03:11:04.988Z,5.70
2023-01-07T03:12:27.376Z,5.06
2023-01-07T03:13:49.529Z,5.31
2023-01-07T03:14:59.114Z,5.37
2023-01-07T03:16:26.003Z,5.51
2023-01-07T03:17:30.884Z,4.80
2023-01-07T03:18:38.996Z,5.12
2023-01-07T03:19:42.039Z,5.50
2023-01-07T03:20:41.698Z,5.19
2023-01-07T03:21:39.271Z,5.33
2023-01-07T03:22:39.488Z,3.91
2023-01-07T03:23:56.161Z,5.34
2023-01-07T03:24:57.073Z,4.88
2023-01-07T03:25:59.169Z,5.14
2023-01-07T03:27:01.040Z,5.18
2023-01-07T03:28:00.876Z,4.72
2023-01-07T03:29:03.250Z,4.42
2023-01-07T03:30:07.781Z,4.43
2023-01-07T03:31:08.105Z,4.77
2023-01-07T03:32:14.406Z,4.33
2023-01-07T03:33:14.038Z,4.66
2023-01-07T03:34:17.007Z,4.41
2023-01-07T03:35:17.137Z,3.56
2023-01-07T03:36:19.596Z,4.92
2023-01-07T03:37:23.482Z,3.97
2023-01-07T03:38:24.144Z,4.24
2023-01-07T03:39:25.577Z,3.40
2023-01-07T03:40:22.717Z,4.57
2023-01-07T03:41:37.892Z,4.55
2023-01-07T03:42:40.714Z,4.49
2023-01-07T03:43:37.515Z,4.20
2023-01-07T03:44:34.513Z,5.02
2023-01-07T03:45:31.488Z,4.70
2023-01-07T03:46:28.969Z,3.76
2023-01-07T03:47:28.815Z,3.39
2023-01-07T03:48:25.852Z,4.28
2023-01-07T03:49:22.767Z,2.70
2023-01-07T03:50:20.539Z,4.11
2023-01-07T03:51:17.319Z,3.58
2023-01-07T03:52:14.246Z,3.82
2023-01-07T03:53:11.108Z,3.98
2023-01-07T03:54:07.960Z,2.97
2023-01-07T03:55:05.671Z,3.28
2023-01-07T03:56:02.467Z,3.99
2023-01-07T03:56:59.222Z,3.71
2023-01-07T03:57:57.354Z,4.12
2023-01-07T03:58:54.259Z,4.47
2023-01-07T03:59:51.181Z,4.44
2023-01-07T04:00:47.968Z,3.45
2023-01-07T04:01:44.936Z,4.76
2023-01-07T04:02:43.077Z,5.00
2023-01-07T04:03:39.898Z,5.14
2023-01-07T04:04:36.877Z,5.42
2023-01-07T04:05:33.696Z,5.38
2023-01-07T04:06:30.739Z,4.50
2023-01-07T04:07:27.502Z,4.07
2023-01-07T04:08:24.284Z,4.62
2023-01-07T04:09:22.107Z,4.91
2023-01-07T04:10:19.116Z,4.84
2023-01-07T04:11:15.972Z,5.39
2023-01-07T04:12:14.301Z,5.05
2023-01-07T04:13:11.146Z,4.99
2023-01-07T04:14:07.962Z,5.38
2023-01-07T04:15:05.256Z,5.48
2023-01-07T04:16:02.136Z,5.55
2023-01-07T04:16:58.902Z,5.10
2023-01-07T04:17:55.751Z,4.90
2023-01-07T04:18:52.765Z,4.73
2023-01-07T04:19:49.891Z,3.29
2023-01-07T04:20:48.080Z,3.99
2023-01-07T04:21:44.904Z,4.56
2023-01-07T04:22:41.666Z,4.77
2023-01-07T04:23:38.516Z,4.73
2023-01-07T04:24:35.454Z,5.54
2023-01-07T04:25:32.618Z,5.43
2023-01-07T04:26:29.561Z,5.23
2023-01-07T04:27:26.367Z,5.39
2023-01-07T04:28:23.212Z,5.88
2023-01-07T04:29:21.012Z,6.02
2023-01-07T04:30:17.977Z,6.26
2023-01-07T04:31:14.743Z,4.80
2023-01-07T04:32:11.593Z,5.36
2023-01-07T04:33:08.395Z,5.75
2023-01-07T04:34:05.526Z,6.31
2023-01-07T04:35:02.451Z,6.17
2023-01-07T04:35:59.291Z,6.16
2023-01-07T04:36:56.048Z,6.11
2023-01-07T04:37:52.863Z,5.89
2023-01-07T04:38:49.927Z,5.88
2023-01-07T04:39:46.774Z,5.80
2023-01-07T04:40:45.060Z,5.45
2023-01-07T04:41:41.946Z,5.35
2023-01-07T04:42:38.797Z,6.20
2023-01-07T04:43:36.316Z,5.40
2023-01-07T04:44:33.131Z,4.93
2023-01-07T04:45:29.966Z,5.23
2023-01-07T04:46:26.951Z,5.19
2023-01-07T04:47:23.807Z,5.82
2023-01-07T04:48:20.700Z,5.60
2023-01-07T04:49:17.722Z,4.48
2023-01-07T04:50:17.371Z,4.91
2023-01-07T04:51:14.215Z,5.41
2023-01-07T04:52:11.078Z,5.72
2023-01-07T04:53:08.203Z,6.04
2023-01-07T04:54:05.306Z,5.36
2023-01-07T04:55:02.686Z,5.59
2023-01-07T04:55:59.495Z,4.96
2023-01-07T04:56:56.640Z,4.94
2023-01-07T04:57:53.463Z,4.77
2023-01-07T04:58:50.358Z,5.22
2023-01-07T04:59:47.133Z,4.80
2023-01-07T05:00:45.556Z,5.24
2023-01-07T05:01:42.518Z,5.88
2023-01-07T05:02:39.449Z,5.79
2023-01-07T05:03:36.239Z,4.74
2023-01-07T05:04:33.007Z,5.02
2023-01-07T05:05:29.824Z,6.08
2023-01-07T05:06:26.752Z,5.34
2023-01-07T05:07:23.565Z,5.38
2023-01-07T05:08:20.341Z,4.43
2023-01-07T05:09:17.168Z,4.91
2023-01-07T05:10:13.954Z,5.80
2023-01-07T05:11:10.818Z,5.16
2023-01-07T05:12:07.622Z,5.29
2023-01-07T05:13:06.969Z,5.35
2023-01-07T05:14:03.923Z,5.49
2023-01-07T05:15:01.515Z,5.49
2023-01-07T05:15:58.542Z,5.88
2023-01-07T05:16:55.361Z,3.51
2023-01-07T05:17:52.279Z,4.94
2023-01-07T05:18:49.048Z,4.71
2023-01-07T05:19:45.800Z,3.87
2023-01-07T05:20:42.614Z,5.10
2023-01-07T05:21:39.544Z,4.61
2023-01-07T05:22:36.378Z,4.86
2023-01-07T05:23:33.155Z,4.79
2023-01-07T05:24:29.997Z,5.06
2023-01-07T05:25:26.788Z,4.80
2023-01-07T05:26:23.641Z,4.98
2023-01-07T05:27:20.441Z,4.84
2023-01-07T05:28:17.277Z,4.98
2023-01-07T05:29:14.034Z,4.96
2023-01-07T05:30:11.193Z,4.77
2023-01-07T05:31:07.992Z,4.36
2023-01-07T05:32:05.936Z,5.00
2023-01-07T05:33:02.977Z,5.04
2023-01-07T05:33:59.845Z,5.54
2023-01-07T05:34:56.698Z,4.86
2023-01-07T05:35:53.562Z,4.59
2023-01-07T05:36:50.366Z,4.16
2023-01-07T05:37:47.178Z,4.88
2023-01-07T05:38:44.057Z,5.38
2023-01-07T05:39:40.971Z,5.64
2023-01-07T05:40:37.735Z,5.68
2023-01-07T05:41:34.507Z,5.81
2023-01-07T05:42:31.339Z,4.99
2023-01-07T05:43:28.789Z,4.93
2023-01-07T05:44:25.622Z,1.67
2023-01-07T05:45:22.489Z,5.08
2023-01-07T05:46:19.451Z,4.13
2023-01-07T05:47:16.326Z,4.54
2023-01-07T05:48:13.789Z,3.91
2023-01-07T05:49:10.555Z,4.78
2023-01-07T05:50:07.676Z,5.23
2023-01-07T05:51:04.893Z,4.93
2023-01-07T05:52:01.677Z,5.33
2023-01-07T05:52:58.471Z,5.32
2023-01-07T05:53:55.598Z,3.99
2023-01-07T05:54:52.517Z,5.08
2023-01-07T05:55:49.451Z,3.92
2023-01-07T05:56:46.381Z,3.81
2023-01-07T05:57:43.216Z,2.97
2023-01-07T05:58:40.139Z,3.91
2023-01-07T05:59:37.229Z,3.81
2023-01-07T06:00:36.233Z,4.33
2023-01-07T06:01:33.385Z,4.07
2023-01-07T06:02:38.497Z,4.09
2023-01-07T06:03:35.652Z,4.97
2023-01-07T06:04:34.283Z,4.47
2023-01-07T06:05:31.555Z,3.54
2023-01-07T06:06:28.403Z,4.50
2023-01-07T06:07:25.137Z,2.90
2023-01-07T06:08:21.896Z,4.05
2023-01-07T06:09:18.669Z,3.43
2023-01-07T06:10:15.694Z,0.72
2023-01-07T06:11:12.484Z,1.36
2023-01-07T06:12:09.253Z,3.60
2023-01-07T06:13:06.083Z,4.61
2023-01-07T06:14:03.078Z,2.73
2023-01-07T06:15:00.235Z,3.92
2023-01-07T06:16:08.375Z,3.60
2023-01-07T06:17:05.274Z,4.06
2023-01-07T06:18:02.397Z,3.58
2023-01-07T06:18:59.153Z,2.74
2023-01-07T06:19:55.906Z,3.77
2023-01-07T06:20:52.809Z,4.11
2023-01-07T06:21:50.059Z,3.42
2023-01-07T06:22:46.894Z,1.86
2023-01-07T06:23:43.695Z,3.80
2023-01-07T06:24:40.583Z,4.18
2023-01-07T06:25:37.353Z,4.29
2023-01-07T06:26:34.130Z,3.72
2023-01-07T06:27:31.165Z,4.20
2023-01-07T06:28:27.942Z,4.50
2023-01-07T06:29:24.704Z,4.09
2023-01-07T06:30:21.528Z,3.05
2023-01-07T06:31:18.436Z,3.02
2023-01-07T06:32:15.271Z,4.60
2023-01-07T06:33:12.942Z,4.89
2023-01-07T06:34:09.849Z,3.90
2023-01-07T06:35:07.740Z,5.19
2023-01-07T06:36:05.159Z,4.23
2023-01-07T06:37:02.018Z,5.44
2023-01-07T06:37:59.170Z,4.68
2023-01-07T06:38:56.006Z,5.00
2023-01-07T06:39:52.860Z,4.99
2023-01-07T06:40:49.735Z,4.97
2023-01-07T06:41:46.467Z,4.06
2023-01-07T06:42:43.294Z,0.72
2023-01-07T06:43:40.108Z,5.09
2023-01-07T06:44:37.096Z,5.22
2023-01-07T06:45:33.940Z,5.28
2023-01-07T06:46:30.845Z,5.67
2023-01-07T06:47:27.778Z,5.02
2023-01-07T06:48:24.594Z,5.04
2023-01-07T06:49:21.432Z,4.68
2023-01-07T06:50:18.501Z,5.05
2023-01-07T06:51:15.312Z,5.05
2023-01-07T06:52:12.141Z,3.99
2023-01-07T06:53:08.955Z,4.13
2023-01-07T06:54:05.894Z,5.39
2023-01-07T06:55:03.181Z,5.29
2023-01-07T06:55:59.945Z,5.76
2023-01-07T06:56:56.698Z,4.79
2023-01-07T06:57:54.047Z,5.11
2023-01-07T06:58:50.921Z,4.10
2023-01-07T06:59:47.679Z,4.79
2023-01-07T07:00:45.158Z,3.55
2023-01-07T07:01:46.601Z,3.65
2023-01-07T07:02:43.645Z,5.24
2023-01-07T07:03:40.551Z,5.21
2023-01-07T07:04:37.378Z,4.92
2023-01-07T07:05:35.343Z,5.14
2023-01-07T07:06:32.575Z,4.32
2023-01-07T07:07:29.347Z,3.71
2023-01-07T07:08:26.169Z,4.82
2023-01-07T07:09:22.917Z,4.78
2023-01-07T07:10:19.979Z,3.95
2023-01-07T07:11:16.887Z,5.24
2023-01-07T07:12:17.881Z,5.25
2023-01-07T07:13:14.727Z,5.68
2023-01-07T07:14:11.860Z,5.50
2023-01-07T07:15:09.663Z,4.71
2023-01-07T07:16:10.223Z,5.24
2023-01-07T07:17:07.048Z,2.52
2023-01-07T07:18:03.998Z,5.34
2023-01-07T07:19:00.903Z,4.85
2023-01-07T07:19:57.775Z,4.59
2023-01-07T07:20:54.779Z,5.69
2023-01-07T07:21:51.630Z,4.95
2023-01-07T07:22:49.227Z,5.54
2023-01-07T07:23:45.988Z,6.07
2023-01-07T07:24:42.772Z,6.47
2023-01-07T07:25:39.604Z,5.97
2023-01-07T07:26:36.404Z,6.30
2023-01-07T07:27:33.216Z,4.88
2023-01-07T07:28:30.042Z,4.94
2023-01-07T07:29:27.103Z,4.84
2023-01-07T07:30:46.319Z,5.59
2023-01-07T07:31:42.485Z,6.36
2023-01-07T07:32:39.287Z,6.07
2023-01-07T07:33:46.371Z,5.68
2023-01-07T07:34:43.417Z,5.54
2023-01-07T07:35:43.005Z,4.59
2023-01-07T07:36:40.010Z,5.55
2023-01-07T07:37:37.903Z,5.30
2023-01-07T07:38:34.737Z,5.80
2023-01-07T07:39:31.663Z,5.79
2023-01-07T07:40:28.438Z,6.42
2023-01-07T07:41:25.252Z,6.10
2023-01-07T07:42:22.095Z,5.59
2023-01-07T07:43:18.984Z,5.59
2023-01-07T07:44:17.150Z,5.64
2023-01-07T07:45:17.306Z,5.26
2023-01-07T07:46:14.625Z,5.13
2023-01-07T07:47:11.990Z,5.21
2023-01-07T07:48:10.208Z,5.33
2023-01-07T07:49:07.083Z,4.98
2023-01-07T07:50:04.547Z,5.45
2023-01-07T07:51:01.491Z,5.81
2023-01-07T07:51:58.343Z,5.41
2023-01-07T07:52:55.431Z,5.50
2023-01-07T07:53:52.258Z,5.37
2023-01-07T07:54:49.082Z,5.84
2023-01-07T07:55:46.575Z,5.90
2023-01-07T07:56:43.466Z,6.09
2023-01-07T07:57:42.427Z,5.91
2023-01-07T07:58:39.231Z,5.81
2023-01-07T07:59:36.009Z,5.19
2023-01-07T08:00:33.360Z,5.72
2023-01-07T08:01:30.249Z,5.63
2023-01-07T08:02:27.055Z,6.04
2023-01-07T08:03:24.050Z,6.34
2023-01-07T08:04:21.067Z,6.31
2023-01-07T08:05:17.866Z,6.75
2023-01-07T08:06:14.861Z,6.36
2023-01-07T08:07:12.483Z,6.25
2023-01-07T08:08:12.961Z,5.78
2023-01-07T08:09:09.853Z,6.01
2023-01-07T08:10:07.269Z,5.69
2023-01-07T08:11:04.864Z,6.26
2023-01-07T08:12:01.780Z,5.58
2023-01-07T08:12:58.997Z,5.07
2023-01-07T08:13:55.793Z,5.17
2023-01-07T08:14:52.520Z,5.06
2023-01-07T08:15:49.410Z,5.78
2023-01-07T08:16:46.234Z,5.77
2023-01-07T08:17:45.578Z,5.89
2023-01-07T08:18:43.108Z,5.73
2023-01-07T08:19:39.902Z,6.01
2023-01-07T08:20:37.734Z,5.54
2023-01-07T08:21:34.579Z,5.59
2023-01-07T08:22:31.739Z,5.53
2023-01-07T08:23:28.689Z,5.80
2023-01-07T08:24:25.465Z,5.52
2023-01-07T08:25:22.252Z,5.73
2023-01-07T08:26:19.106Z,5.89
2023-01-07T08:27:15.876Z,6.06
2023-01-07T08:28:13.063Z,6.19
2023-01-07T08:29:09.945Z,6.10
2023-01-07T08:30:07.184Z,5.82
2023-01-07T08:31:06.354Z,5.59
2023-01-07T08:32:05.963Z,6.22
2023-01-07T08:33:08.056Z,6.43
2023-01-07T08:34:04.900Z,6.64
2023-01-07T08:35:01.651Z,6.61
2023-01-07T08:35:58.425Z,6.56
2023-01-07T08:36:55.221Z,6.40
2023-01-07T08:37:52.060Z,6.30
2023-01-07T08:38:55.782Z,6.49
2023-01-07T08:39:52.519Z,6.12
2023-01-07T08:40:49.488Z,6.66
2023-01-07T08:41:46.238Z,6.82
2023-01-07T08:42:43.129Z,6.55
2023-01-07T08:43:40.085Z,6.92
2023-01-07T08:44:36.977Z,7.01
2023-01-07T08:45:33.763Z,7.07
2023-01-07T08:46:30.663Z,6.88
2023-01-07T08:47:27.929Z,6.77
2023-01-07T08:48:24.706Z,7.06
2023-01-07T08:49:22.480Z,6.86
2023-01-07T08:50:20.233Z,6.78
2023-01-07T08:51:17.137Z,6.52
2023-01-07T08:52:14.222Z,6.08
2023-01-07T08:53:11.065Z,6.49
2023-01-07T08:54:07.917Z,6.97
2023-01-07T08:55:04.894Z,7.00
2023-01-07T08:56:01.708Z,6.83
2023-01-07T08:56:58.541Z,7.28
2023-01-07T08:57:55.607Z,7.17
2023-01-07T08:58:52.520Z,6.77
2023-01-07T08:59:49.349Z,6.87
2023-01-07T09:00:46.155Z,6.07
2023-01-07T09:01:43.137Z,5.79
2023-01-07T09:02:40.262Z,6.88
2023-01-07T09:03:38.765Z,7.46
2023-01-07T09:04:35.575Z,7.06
2023-01-07T09:05:35.409Z,6.95
2023-01-07T09:06:32.267Z,6.77
2023-01-07T09:07:29.134Z,7.20
2023-01-07T09:08:26.117Z,7.51
2023-01-07T09:09:23.027Z,7.07
2023-01-07T09:10:20.463Z,6.13
2023-01-07T09:11:17.839Z,7.25
2023-01-07T09:12:14.854Z,7.35
2023-01-07T09:13:11.895Z,6.57
2023-01-07T09:14:08.920Z,6.96
2023-01-07T09:15:06.900Z,7.13
2023-01-07T09:16:03.844Z,7.63
2023-01-07T09:17:00.560Z,6.09
2023-01-07T09:17:59.711Z,6.82
2023-01-07T09:18:56.584Z,6.92
2023-01-07T09:19:53.366Z,7.03
2023-01-07T09:20:50.157Z,6.94
2023-01-07T09:21:47.343Z,7.08
2023-01-07T09:22:44.395Z,7.04
2023-01-07T09:23:41.420Z,7.41
2023-01-07T09:24:38.465Z,7.43
2023-01-07T09:25:35.455Z,7.55
2023-01-07T09:26:35.113Z,7.12
2023-01-07T09:27:32.040Z,7.29
2023-01-07T09:28:31.945Z,7.98
2023-01-07T09:29:28.727Z,7.88
2023-01-07T09:30:28.636Z,7.56
2023-01-07T09:31:25.424Z,8.12
2023-01-07T09:32:26.006Z,7.89
2023-01-07T09:33:26.045Z,7.60
2023-01-07T09:34:37.223Z,6.19
2023-01-07T09:35:34.226Z,7.90
2023-01-07T09:36:34.060Z,6.91
2023-01-07T09:37:46.019Z,7.94
2023-01-07T09:38:42.963Z,7.80
2023-01-07T09:39:41.311Z,7.84
2023-01-07T09:40:43.690Z,7.33
2023-01-07T09:42:14.434Z,7.99
2023-01-07T09:43:59.690Z,5.01
2023-01-07T09:45:24.409Z,8.38
2023-01-07T09:46:31.557Z,8.07
2023-01-07T09:47:30.174Z,5.81
2023-01-07T09:48:49.511Z,8.19
2023-01-07T09:50:05.996Z,7.34
2023-01-07T09:51:12.631Z,8.18
2023-01-07T09:52:27.086Z,8.27
2023-01-07T09:53:54.483Z,7.81
2023-01-07T09:55:02.439Z,8.71
2023-01-07T09:56:11.086Z,8.30
2023-01-07T09:57:21.060Z,8.52
2023-01-07T09:58:21.520Z,8.70
2023-01-07T09:59:22.344Z,8.30
2023-01-07T10:00:24.584Z,9.06
2023-01-07T10:01:31.349Z,8.58
2023-01-07T10:02:58.015Z,9.09
2023-01-07T10:04:06.582Z,9.23
2023-01-07T10:05:37.042Z,9.27
2023-01-07T10:08:58.719Z,9.03
2023-01-07T10:10:10.170Z,8.94
2023-01-07T10:11:16.294Z,8.38
2023-01-07T10:12:41.190Z,9.11
2023-01-07T10:13:47.149Z,9.20
2023-01-07T10:15:17.678Z,8.75
2023-01-07T10:16:29.178Z,9.15
2023-01-07T10:18:07.917Z,8.88
2023-01-07T10:19:40.167Z,9.27
2023-01-07T10:21:12.645Z,4.93
2023-01-07T10:22:38.177Z,9.67
2023-01-07T10:23:42.113Z,8.43
2023-01-07T10:24:46.859Z,9.77
2023-01-07T10:25:48.871Z,9.79
2023-01-07T10:26:54.007Z,10.00
2023-01-07T10:28:01.285Z,10.06
2023-01-07T10:29:16.371Z,9.24
2023-01-07T10:30:41.652Z,9.99
2023-01-07T10:31:43.599Z,9.05
2023-01-07T10:32:46.569Z,9.59
2023-01-07T10:33:55.738Z,10.14
2023-01-07T10:35:00.009Z,8.94
2023-01-07T10:36:20.753Z,10.14
2023-01-07T10:37:31.671Z,9.86
2023-01-07T10:38:37.016Z,9.74
2023-01-07T10:39:57.737Z,10.57
2023-01-07T10:41:01.360Z,10.32
2023-01-07T10:42:17.574Z,10.18
2023-01-07T10:43:20.564Z,10.27
2023-01-07T10:44:41.263Z,10.31
2023-01-07T10:45:59.517Z,9.74
2023-01-07T10:47:11.246Z,10.35
2023-01-07T10:48:21.694Z,10.39
2023-01-07T10:49:53.775Z,10.72
2023-01-07T10:51:12.476Z,10.37
2023-01-07T10:52:35.291Z,10.65
2023-01-07T10:54:26.770Z,10.09
2023-01-07T10:55:28.324Z,10.26
2023-01-07T10:56:43.692Z,10.38
2023-01-07T10:57:42.560Z,9.63
2023-01-07T10:58:46.348Z,9.74
2023-01-07T10:59:58.874Z,9.81
2023-01-07T11:00:56.832Z,10.73
2023-01-07T11:03:45.648Z,6.42
2023-01-07T11:05:31.214Z,10.57
2023-01-07T11:06:33.979Z,10.65
2023-01-07T11:07:51.834Z,8.09
2023-01-07T11:09:56.054Z,10.82
2023-01-07T11:11:03.652Z,8.38
2023-01-07T11:12:40.111Z,10.75
2023-01-07T11:16:19.750Z,6.60
2023-01-07T11:17:53.199Z,10.57
2023-01-07T11:20:55.872Z,11.02
2023-01-07T11:21:58.030Z,10.68
2023-01-07T11:22:54.972Z,10.74
2023-01-07T11:23:59.197Z,10.77
2023-01-07T11:25:28.743Z,10.37
2023-01-07T11:26:30.122Z,7.68
2023-01-07T11:27:38.464Z,10.53
2023-01-07T11:30:26.988Z,11.15
2023-01-07T11:31:53.230Z,11.26
2023-01-07T11:33:08.869Z,11.22
2023-01-07T11:34:21.419Z,10.62
2023-01-07T11:35:22.688Z,11.57
2023-01-07T11:36:21.511Z,11.33
2023-01-07T11:37:47.512Z,10.38
2023-01-07T11:38:50.531Z,11.42
2023-01-07T11:39:59.300Z,11.52
2023-01-07T11:41:10.016Z,11.16
2023-01-07T11:42:36.980Z,11.62
2023-01-07T11:43:39.587Z,10.86
2023-01-07T11:44:36.386Z,10.00
2023-01-07T11:46:19.685Z,11.42
2023-01-07T11:48:03.854Z,10.74
2023-01-07T11:49:08.249Z,8.10
2023-01-07T11:50:32.855Z,8.96
2023-01-07T11:51:42.939Z,11.82
2023-01-07T11:52:39.896Z,11.83
2023-01-07T11:55:06.864Z,11.77
2023-01-07T11:56:21.815Z,11.83
2023-01-07T11:57:28.271Z,11.76
2023-01-07T11:58:48.871Z,11.81
2023-01-07T11:59:45.791Z,11.64
2023-01-07T12:00:42.543Z,11.22
2023-01-07T12:02:00.649Z,11.78
2023-01-07T12:03:12.379Z,11.78
2023-01-07T12:04:43.787Z,10.97
2023-01-07T12:05:47.320Z,8.89
2023-01-07T12:06:50.117Z,11.36
2023-01-07T12:07:53.376Z,11.55
2023-01-07T12:10:35.134Z,11.87
2023-01-07T12:11:40.750Z,11.40
2023-01-07T12:12:43.070Z,11.04
2023-01-07T12:13:50.344Z,9.88
2023-01-07T12:14:48.767Z,11.84
2023-01-07T12:16:11.483Z,9.43
2023-01-07T12:17:18.484Z,11.84
2023-01-07T12:18:31.525Z,11.92
2023-01-07T12:19:51.292Z,11.95
2023-01-07T12:21:25.883Z,11.75
2023-01-07T12:22:59.601Z,11.60
2023-01-07T12:24:32.928Z,11.96
2023-01-07T12:25:34.418Z,12.13
2023-01-07T12:27:06.649Z,12.04
2023-01-07T12:28:57.049Z,10.86
2023-01-07T12:30:30.213Z,11.74
2023-01-07T12:31:48.223Z,11.87
2023-01-07T12:33:05.220Z,11.99
2023-01-07T12:34:16.134Z,11.94
2023-01-07T12:35:31.365Z,11.84
2023-01-07T12:36:36.817Z,12.03
2023-01-07T12:37:45.995Z,12.09
2023-01-07T12:39:01.064Z,12.14
2023-01-07T12:40:08.484Z,12.01
2023-01-07T12:41:19.634Z,11.44
2023-01-07T12:42:32.222Z,12.10
2023-01-07T12:43:51.315Z,12.20
2023-01-07T12:44:58.254Z,12.18
2023-01-07T12:46:05.734Z,12.17
2023-01-07T12:47:31.154Z,11.05
2023-01-07T12:48:53.753Z,12.21
2023-01-07T12:50:10.818Z,12.24
2023-01-07T12:51:30.425Z,11.31
2023-01-07T12:52:43.866Z,12.09
2023-01-07T12:53:50.864Z,12.20
2023-01-07T12:55:01.713Z,12.27
2023-01-07T12:56:27.379Z,12.11
2023-01-07T12:57:46.442Z,12.18
2023-01-07T12:59:07.147Z,12.29
2023-01-07T13:00:13.957Z,12.22
2023-01-07T13:01:19.719Z,12.22
2023-01-07T13:02:19.891Z,12.27
2023-01-07T13:03:40.051Z,12.40
2023-01-07T13:04:52.098Z,12.35
2023-01-07T13:06:08.521Z,12.27
2023-01-07T13:07:29.734Z,12.26
2023-01-07T13:08:39.669Z,11.96
2023-01-07T13:09:49.605Z,12.03
2023-01-07T13:10:58.550Z,12.29
2023-01-07T13:12:42.507Z,12.49
2023-01-07T13:13:48.624Z,12.24
2023-01-07T13:14:57.820Z,12.48
2023-01-07T13:15:54.752Z,12.27
2023-01-07T13:16:51.635Z,12.36
2023-01-07T13:17:51.389Z,12.18
2023-01-07T13:18:48.181Z,12.54
2023-01-07T13:19:45.072Z,12.45
2023-01-07T13:20:50.871Z,12.47
2023-01-07T13:21:50.386Z,12.52
2023-01-07T13:22:57.536Z,12.22
2023-01-07T13:24:12.218Z,12.53
2023-01-07T13:25:17.741Z,12.35
2023-01-07T13:26:35.446Z,12.59
2023-01-07T13:27:54.755Z,12.24
2023-01-07T13:29:19.382Z,12.59
2023-01-07T13:31:00.973Z,12.51
2023-01-07T13:32:35.456Z,12.10
2023-01-07T13:33:45.072Z,12.24
2023-01-07T13:35:23.970Z,12.63
2023-01-07T13:38:56.285Z,8.79
2023-01-07T13:40:40.513Z,12.50
2023-01-07T13:41:57.640Z,11.94
2023-01-07T13:43:38.282Z,12.70
2023-01-07T13:45:02.381Z,11.52
2023-01-07T13:46:38.656Z,12.64
2023-01-07T13:48:05.281Z,12.59
2023-01-07T13:49:02.596Z,12.29
2023-01-07T13:50:02.763Z,12.53
2023-01-07T13:51:06.283Z,12.67
2023-01-07T13:52:19.483Z,12.53
2023-01-07T13:53:16.409Z,12.75
2023-01-07T13:54:13.992Z,12.44
2023-01-07T13:55:42.714Z,12.30
2023-01-07T13:56:40.342Z,12.28
2023-01-07T13:57:38.192Z,12.21
2023-01-07T13:58:42.465Z,12.38
2023-01-07T13:59:48.719Z,12.01
2023-01-07T14:01:12.391Z,12.28
2023-01-07T14:03:45.159Z,10.40
2023-01-07T14:05:13.770Z,12.40
2023-01-07T14:06:21.775Z,12.39
2023-01-07T14:07:24.589Z,12.55
2023-01-07T14:08:32.082Z,12.39
2023-01-07T14:09:54.262Z,12.57
2023-01-07T14:10:57.168Z,12.47
2023-01-07T14:12:20.852Z,12.15
2023-01-07T14:15:43.076Z,12.60
2023-01-07T14:16:55.467Z,12.57
2023-01-07T14:18:17.679Z,11.68
2023-01-07T14:19:32.962Z,12.43
2023-01-07T14:20:48.485Z,12.29
2023-01-07T14:21:51.914Z,12.60